createdAt,value
2022-11-24T00:00:02.140Z,76.61783358692482
2022-11-24T00:15:01.847Z,76.94473517879476
2022-11-24T00:30:02.517Z,77.2476974165208
2022-11-24T00:45:10.212Z,76.84984407432798
2022-11-24T01:00:02.092Z,77.37695680047223
2022-11-24T01:15:01.708Z,78.06777427521294
2022-11-24T01:30:02.379Z,78.66643966748033
2022-11-24T01:45:02.004Z,78.88827170428738
2022-11-24T02:00:01.639Z,78.85141565983818
2022-11-24T02:15:02.266Z,79.30242759601275
2022-11-24T02:30:01.989Z,79.1823601911438
2022-11-24T02:45:01.709Z,78.8478104251699
2022-11-24T03:00:02.400Z,79.2324170981837
2022-11-24T03:15:02.058Z,79.39586278885496
2022-11-24T03:30:01.721Z,79.4616794352407
2022-11-24T03:45:30.023Z,79.40471793211286
2022-11-24T04:00:02.229Z,80.06727411558128
2022-11-24T04:15:01.855Z,80.42196700063259
2022-11-24T04:30:01.554Z,80.46989184189873
2022-11-24T04:45:02.206Z,80.2577148127812
2022-11-24T05:00:01.890Z,79.99781341046103
2022-11-24T05:15:02.515Z,79.92763089252148
2022-11-24T05:30:01.760Z,79.69920694433708
2022-11-24T05:45:02.409Z,80.04010037564807
2022-11-24T06:00:02.024Z,80.54216983194367
2022-11-24T06:15:01.680Z,80.28981731245887
2022-11-24T06:30:02.408Z,80.29056521765176
2022-11-24T06:45:07.388Z,80.47456815809588
2022-11-24T07:00:01.594Z,80.68628343972034
2022-11-24T07:15:02.243Z,81.52597234125908
2022-11-24T07:30:01.911Z,81.68354684320332
2022-11-24T07:45:02.612Z,81.2884896464816
2022-11-24T08:00:02.320Z,81.11209542862476
2022-11-24T08:15:05.367Z,81.03875175639588
2022-11-24T08:30:01.720Z,80.93929025454374
2022-11-24T08:45:19.415Z,80.93130461950348
2022-11-24T09:00:02.354Z,81.10529777333112
2022-11-24T09:15:02.022Z,80.80575711966019
2022-11-24T09:30:01.724Z,80.46002111307679
2022-11-24T09:45:02.395Z,80.7271933538742
2022-11-24T10:00:02.051Z,80.77919441896053
2022-11-24T10:15:01.726Z,80.72576835422315
2022-11-24T10:30:02.520Z,81.03139252971677
2022-11-24T10:45:02.218Z,80.87572181783504
2022-11-24T11:00:01.913Z,80.91623579372775
2022-11-24T11:15:02.579Z,80.78347919808628
2022-11-24T11:45:01.953Z,80.57278125523858
2022-11-24T12:00:01.646Z,80.31385181271791
2022-11-24T12:15:07.358Z,80.21820251172157
2022-11-24T12:30:02.112Z,80.12262595135054
2022-11-24T12:45:01.787Z,79.82027246769977
2022-11-24T13:00:02.488Z,79.94512235747753
2022-11-24T13:15:02.122Z,79.73872499838846
2022-11-24T13:30:01.777Z,79.44064221603689
2022-11-24T13:45:02.456Z,79.1655425081305
2022-11-24T14:00:02.094Z,78.78879281871447
2022-11-24T14:15:01.787Z,78.48250867331389
2022-11-24T14:30:02.519Z,78.48655151942997
2022-11-24T14:45:02.164Z,78.2614406073314
2022-11-24T15:00:01.760Z,78.05168649654347
2022-11-24T15:15:02.418Z,78.0480250823717
2022-11-24T15:30:02.074Z,77.82830929651682
2022-11-24T15:45:01.726Z,78.03085551612567
2022-11-24T16:00:02.417Z,77.91756621503053
2022-11-24T16:15:02.063Z,77.83596616090205
2022-11-24T16:30:01.856Z,77.81275260963302
2022-11-24T16:45:02.584Z,77.819544127984
2022-11-24T17:00:02.302Z,77.96777424930076
2022-11-24T17:15:31.132Z,77.84714633073843
2022-11-24T17:30:02.588Z,77.88168576413968
2022-11-24T17:45:02.224Z,78.0930381570462
2022-11-24T18:00:01.867Z,77.99586981954877
2022-11-24T18:15:02.554Z,78.33856706365646
2022-11-24T18:30:02.251Z,78.62261187939339
2022-11-24T18:45:01.895Z,78.40492767548676
2022-11-24T19:00:02.525Z,77.81433765187266
2022-11-24T19:15:02.168Z,77.93792631162842
2022-11-24T19:30:01.895Z,77.7030065587512
2022-11-24T19:45:02.553Z,77.39566558250316
2022-11-24T20:00:02.251Z,77.2521644968611
2022-11-24T20:15:01.893Z,77.8681691329651
2022-11-24T20:30:02.585Z,79.07451425038161
2022-11-24T20:45:02.188Z,79.45385704388917
2022-11-24T21:00:01.888Z,79.02307759126063
2022-11-24T21:15:02.585Z,78.85037703579772
2022-11-24T21:30:02.262Z,78.60306736235047
2022-11-24T21:45:01.887Z,78.60250945686933
2022-11-24T22:00:02.532Z,78.3880625699298
2022-11-24T22:15:02.168Z,78.5923063924186
2022-11-24T22:30:01.862Z,78.2712141909628
2022-11-24T22:45:02.473Z,78.92371357459972
2022-11-24T23:00:02.272Z,78.74079028252126
2022-11-24T23:15:01.878Z,78.5089524296114
2022-11-24T23:30:02.517Z,78.96719033726863
2022-11-24T23:45:02.130Z,78.32934820039124
